sensor_id;sensor_type;location;lat;lon;timestamp;temperature;humidity
47022;DHT22;32779;52.264;6.154;2023-08-31T00:01:38;12.10;99.90
47022;DHT22;32779;52.264;6.154;2023-08-31T00:04:04;12.10;99.90
47022;DHT22;32779;52.264;6.154;2023-08-31T00:06:31;12.10;99.90
47022;DHT22;32779;52.264;6.154;2023-08-31T00:08:56;12.10;99.90
47022;DHT22;32779;52.264;6.154;2023-08-31T00:11:22;12.10;99.90
47022;DHT22;32779;52.264;6.154;2023-08-31T00:13:48;12.10;99.90
47022;DHT22;32779;52.264;6.154;2023-08-31T00:16:13;12.10;99.90
47022;DHT22;32779;52.264;6.154;2023-08-31T00:18:39;12.10;99.90
47022;DHT22;32779;52.264;6.154;2023-08-31T00:21:04;12.00;99.90
47022;DHT22;32779;52.264;6.154;2023-08-31T00:23:30;12.10;99.90
47022;DHT22;32779;52.264;6.154;2023-08-31T00:25:55;12.00;99.90
47022;DHT22;32779;52.264;6.154;2023-08-31T00:28:22;12.00;99.90
47022;DHT22;32779;52.264;6.154;2023-08-31T00:30:50;12.00;99.90
47022;DHT22;32779;52.264;6.154;2023-08-31T00:33:17;12.00;99.90
47022;DHT22;32779;52.264;6.154;2023-08-31T00:35:42;12.00;99.90
47022;DHT22;32779;52.264;6.154;2023-08-31T00:38:09;12.00;99.90
47022;DHT22;32779;52.264;6.154;2023-08-31T00:40:38;11.90;99.90
47022;DHT22;32779;52.264;6.154;2023-08-31T00:43:06;12.00;99.90
47022;DHT22;32779;52.264;6.154;2023-08-31T00:45:32;11.90;99.90
47022;DHT22;32779;52.264;6.154;2023-08-31T00:47:58;11.90;99.90
47022;DHT22;32779;52.264;6.154;2023-08-31T00:50:24;11.90;99.90
47022;DHT22;32779;52.264;6.154;2023-08-31T00:52:49;11.90;99.90
47022;DHT22;32779;52.264;6.154;2023-08-31T00:55:15;11.90;99.90
47022;DHT22;32779;52.264;6.154;2023-08-31T00:57:43;11.90;99.90
47022;DHT22;32779;52.264;6.154;2023-08-31T01:00:09;11.90;99.90
47022;DHT22;32779;52.264;6.154;2023-08-31T01:02:59;11.90;99.90
47022;DHT22;32779;52.264;6.154;2023-08-31T01:07:48;11.90;99.90
47022;DHT22;32779;52.264;6.154;2023-08-31T01:10:22;12.00;99.90
47022;DHT22;32779;52.264;6.154;2023-08-31T01:12:54;11.90;99.90
47022;DHT22;32779;52.264;6.154;2023-08-31T01:15:26;12.00;99.90
47022;DHT22;32779;52.264;6.154;2023-08-31T01:17:54;11.90;99.90
47022;DHT22;32779;52.264;6.154;2023-08-31T01:20:26;12.00;99.90
47022;DHT22;32779;52.264;6.154;2023-08-31T01:25:20;12.00;99.90
47022;DHT22;32779;52.264;6.154;2023-08-31T01:27:46;12.00;99.90
47022;DHT22;32779;52.264;6.154;2023-08-31T01:30:12;12.10;99.90
47022;DHT22;32779;52.264;6.154;2023-08-31T01:32:38;12.10;99.90
47022;DHT22;32779;52.264;6.154;2023-08-31T01:35:10;12.20;99.90
47022;DHT22;32779;52.264;6.154;2023-08-31T01:37:41;12.30;99.90
47022;DHT22;32779;52.264;6.154;2023-08-31T01:40:10;12.30;99.90
47022;DHT22;32779;52.264;6.154;2023-08-31T01:42:37;12.40;99.90
47022;DHT22;32779;52.264;6.154;2023-08-31T01:45:03;12.40;99.90
47022;DHT22;32779;52.264;6.154;2023-08-31T01:47:30;12.40;99.90
47022;DHT22;32779;52.264;6.154;2023-08-31T01:49:56;12.40;99.90
47022;DHT22;32779;52.264;6.154;2023-08-31T01:52:21;12.40;99.90
47022;DHT22;32779;52.264;6.154;2023-08-31T01:54:47;12.40;99.90
47022;DHT22;32779;52.264;6.154;2023-08-31T01:57:13;12.40;99.90
47022;DHT22;32779;52.264;6.154;2023-08-31T01:59:38;12.40;99.90
47022;DHT22;32779;52.264;6.154;2023-08-31T02:02:04;12.40;99.90
47022;DHT22;32779;52.264;6.154;2023-08-31T02:04:29;12.40;99.90
47022;DHT22;32779;52.264;6.154;2023-08-31T02:06:55;12.40;99.90
47022;DHT22;32779;52.264;6.154;2023-08-31T02:09:20;12.40;99.90
47022;DHT22;32779;52.264;6.154;2023-08-31T02:11:46;12.40;99.90
47022;DHT22;32779;52.264;6.154;2023-08-31T02:14:11;12.40;99.90
47022;DHT22;32779;52.264;6.154;2023-08-31T02:16:37;12.40;99.90
47022;DHT22;32779;52.264;6.154;2023-08-31T02:19:03;12.40;99.90
47022;DHT22;32779;52.264;6.154;2023-08-31T02:21:28;12.40;99.90
47022;DHT22;32779;52.264;6.154;2023-08-31T02:23:54;12.30;99.90
47022;DHT22;32779;52.264;6.154;2023-08-31T02:26:20;12.30;99.90
47022;DHT22;32779;52.264;6.154;2023-08-31T02:28:46;12.30;99.90
47022;DHT22;32779;52.264;6.154;2023-08-31T02:31:13;12.30;99.90
47022;DHT22;32779;52.264;6.154;2023-08-31T02:33:38;12.30;99.90
47022;DHT22;32779;52.264;6.154;2023-08-31T02:36:04;12.30;99.90
47022;DHT22;32779;52.264;6.154;2023-08-31T02:38:29;12.20;99.90
47022;DHT22;32779;52.264;6.154;2023-08-31T02:40:55;12.20;99.90
47022;DHT22;32779;52.264;6.154;2023-08-31T02:43:20;12.10;99.90
47022;DHT22;32779;52.264;6.154;2023-08-31T02:45:46;12.10;99.90
47022;DHT22;32779;52.264;6.154;2023-08-31T02:48:12;12.10;99.90
47022;DHT22;32779;52.264;6.154;2023-08-31T02:50:38;12.10;99.90
47022;DHT22;32779;52.264;6.154;2023-08-31T02:53:04;12.10;99.90
47022;DHT22;32779;52.264;6.154;2023-08-31T02:55:32;12.00;99.90
47022;DHT22;32779;52.264;6.154;2023-08-31T02:57:57;12.00;99.90
47022;DHT22;32779;52.264;6.154;2023-08-31T03:00:22;12.00;99.90
47022;DHT22;32779;52.264;6.154;2023-08-31T03:02:48;12.10;99.90
47022;DHT22;32779;52.264;6.154;2023-08-31T03:05:15;12.00;99.90
47022;DHT22;32779;52.264;6.154;2023-08-31T03:07:41;12.00;99.90
47022;DHT22;32779;52.264;6.154;2023-08-31T03:10:07;12.10;99.90
47022;DHT22;32779;52.264;6.154;2023-08-31T03:12:32;12.10;99.90
47022;DHT22;32779;52.264;6.154;2023-08-31T03:14:58;12.10;99.90
47022;DHT22;32779;52.264;6.154;2023-08-31T03:17:23;12.10;99.90
47022;DHT22;32779;52.264;6.154;2023-08-31T03:19:49;12.00;99.90
47022;DHT22;32779;52.264;6.154;2023-08-31T03:22:14;12.00;99.90
47022;DHT22;32779;52.264;6.154;2023-08-31T03:24:40;12.00;99.90
47022;DHT22;32779;52.264;6.154;2023-08-31T03:27:05;11.90;99.90
47022;DHT22;32779;52.264;6.154;2023-08-31T03:29:31;11.90;99.90
47022;DHT22;32779;52.264;6.154;2023-08-31T03:32:00;11.90;99.90
47022;DHT22;32779;52.264;6.154;2023-08-31T03:34:29;11.90;99.90
47022;DHT22;32779;52.264;6.154;2023-08-31T03:36:56;11.90;99.90
47022;DHT22;32779;52.264;6.154;2023-08-31T03:39:21;11.90;99.90
47022;DHT22;32779;52.264;6.154;2023-08-31T03:41:47;11.90;99.90
47022;DHT22;32779;52.264;6.154;2023-08-31T03:44:14;11.90;99.90
47022;DHT22;32779;52.264;6.154;2023-08-31T03:46:40;11.90;99.90
47022;DHT22;32779;52.264;6.154;2023-08-31T03:49:05;11.90;99.90
47022;DHT22;32779;52.264;6.154;2023-08-31T03:51:31;11.90;99.90
47022;DHT22;32779;52.264;6.154;2023-08-31T03:53:57;11.90;99.90
47022;DHT22;32779;52.264;6.154;2023-08-31T03:56:22;11.90;99.90
47022;DHT22;32779;52.264;6.154;2023-08-31T03:58:50;11.90;99.90
47022;DHT22;32779;52.264;6.154;2023-08-31T04:01:18;11.90;99.90
47022;DHT22;32779;52.264;6.154;2023-08-31T04:03:43;11.80;99.90
47022;DHT22;32779;52.264;6.154;2023-08-31T04:06:09;11.80;99.90
47022;DHT22;32779;52.264;6.154;2023-08-31T04:08:34;11.80;99.90
47022;DHT22;32779;52.264;6.154;2023-08-31T04:11:00;11.80;99.90
47022;DHT22;32779;52.264;6.154;2023-08-31T04:13:25;11.80;99.90
47022;DHT22;32779;52.264;6.154;2023-08-31T04:15:52;11.80;99.90
47022;DHT22;32779;52.264;6.154;2023-08-31T04:18:17;11.80;99.90
47022;DHT22;32779;52.264;6.154;2023-08-31T04:20:48;11.80;99.90
47022;DHT22;32779;52.264;6.154;2023-08-31T04:23:14;11.80;99.90
47022;DHT22;32779;52.264;6.154;2023-08-31T04:25:39;11.80;99.90
47022;DHT22;32779;52.264;6.154;2023-08-31T04:28:05;11.80;99.90
47022;DHT22;32779;52.264;6.154;2023-08-31T04:30:30;11.90;99.90
47022;DHT22;32779;52.264;6.154;2023-08-31T04:32:56;11.90;99.90
47022;DHT22;32779;52.264;6.154;2023-08-31T04:35:22;11.90;99.90
47022;DHT22;32779;52.264;6.154;2023-08-31T04:37:47;11.90;99.90
47022;DHT22;32779;52.264;6.154;2023-08-31T04:40:13;11.90;99.90
47022;DHT22;32779;52.264;6.154;2023-08-31T04:42:38;12.00;99.90
47022;DHT22;32779;52.264;6.154;2023-08-31T04:45:04;11.90;99.90
47022;DHT22;32779;52.264;6.154;2023-08-31T04:47:31;11.90;99.90
47022;DHT22;32779;52.264;6.154;2023-08-31T04:49:58;12.00;99.90
47022;DHT22;32779;52.264;6.154;2023-08-31T04:52:24;12.00;99.90
47022;DHT22;32779;52.264;6.154;2023-08-31T04:54:50;12.00;99.90
47022;DHT22;32779;52.264;6.154;2023-08-31T04:57:15;12.00;99.90
47022;DHT22;32779;52.264;6.154;2023-08-31T04:59:41;12.00;99.90
47022;DHT22;32779;52.264;6.154;2023-08-31T05:02:06;12.00;99.90
47022;DHT22;32779;52.264;6.154;2023-08-31T05:04:32;12.00;99.90
47022;DHT22;32779;52.264;6.154;2023-08-31T05:06:57;12.00;99.90
47022;DHT22;32779;52.264;6.154;2023-08-31T05:09:26;12.00;99.90
47022;DHT22;32779;52.264;6.154;2023-08-31T05:11:52;12.00;99.90
47022;DHT22;32779;52.264;6.154;2023-08-31T05:14:17;12.00;99.90
47022;DHT22;32779;52.264;6.154;2023-08-31T05:16:43;12.00;99.90
47022;DHT22;32779;52.264;6.154;2023-08-31T05:19:08;12.00;99.90
47022;DHT22;32779;52.264;6.154;2023-08-31T05:21:34;12.00;99.90
47022;DHT22;32779;52.264;6.154;2023-08-31T05:23:59;12.00;99.90
47022;DHT22;32779;52.264;6.154;2023-08-31T05:26:25;12.10;99.90
47022;DHT22;32779;52.264;6.154;2023-08-31T05:28:50;12.10;99.90
47022;DHT22;32779;52.264;6.154;2023-08-31T05:31:16;12.10;99.90
47022;DHT22;32779;52.264;6.154;2023-08-31T05:33:41;12.10;99.90
47022;DHT22;32779;52.264;6.154;2023-08-31T05:36:07;12.20;99.90
47022;DHT22;32779;52.264;6.154;2023-08-31T05:38:32;12.20;99.90
47022;DHT22;32779;52.264;6.154;2023-08-31T05:41:07;12.20;99.90
47022;DHT22;32779;52.264;6.154;2023-08-31T05:43:33;12.30;99.90
47022;DHT22;32779;52.264;6.154;2023-08-31T05:45:59;12.40;99.90
47022;DHT22;32779;52.264;6.154;2023-08-31T05:48:25;12.40;99.90
47022;DHT22;32779;52.264;6.154;2023-08-31T05:50:50;12.40;99.90
47022;DHT22;32779;52.264;6.154;2023-08-31T05:53:16;12.50;99.90
47022;DHT22;32779;52.264;6.154;2023-08-31T05:55:42;12.50;99.90
47022;DHT22;32779;52.264;6.154;2023-08-31T05:58:07;12.70;99.90
47022;DHT22;32779;52.264;6.154;2023-08-31T06:00:33;12.70;99.90
47022;DHT22;32779;52.264;6.154;2023-08-31T06:02:58;12.80;99.90
47022;DHT22;32779;52.264;6.154;2023-08-31T06:05:24;12.90;99.90
47022;DHT22;32779;52.264;6.154;2023-08-31T06:07:49;12.80;99.90
47022;DHT22;32779;52.264;6.154;2023-08-31T06:10:15;12.90;99.90
47022;DHT22;32779;52.264;6.154;2023-08-31T06:12:41;13.00;99.90
47022;DHT22;32779;52.264;6.154;2023-08-31T06:15:06;13.00;99.90
47022;DHT22;32779;52.264;6.154;2023-08-31T06:17:32;13.00;99.90
47022;DHT22;32779;52.264;6.154;2023-08-31T06:19:58;13.10;99.90
47022;DHT22;32779;52.264;6.154;2023-08-31T06:22:23;13.10;99.90
47022;DHT22;32779;52.264;6.154;2023-08-31T06:24:50;13.20;99.90
47022;DHT22;32779;52.264;6.154;2023-08-31T06:27:17;13.30;99.90
47022;DHT22;32779;52.264;6.154;2023-08-31T06:29:43;13.40;99.90
47022;DHT22;32779;52.264;6.154;2023-08-31T06:32:08;13.50;99.90
47022;DHT22;32779;52.264;6.154;2023-08-31T06:34:34;13.60;99.90
47022;DHT22;32779;52.264;6.154;2023-08-31T06:37:00;13.70;99.90
47022;DHT22;32779;52.264;6.154;2023-08-31T06:39:25;13.70;99.90
47022;DHT22;32779;52.264;6.154;2023-08-31T06:41:51;13.80;99.90
47022;DHT22;32779;52.264;6.154;2023-08-31T06:44:17;13.70;99.90
47022;DHT22;32779;52.264;6.154;2023-08-31T06:46:42;13.70;99.90
47022;DHT22;32779;52.264;6.154;2023-08-31T06:49:11;13.80;99.90
47022;DHT22;32779;52.264;6.154;2023-08-31T06:51:36;13.80;99.90
47022;DHT22;32779;52.264;6.154;2023-08-31T06:54:02;13.80;99.90
47022;DHT22;32779;52.264;6.154;2023-08-31T06:56:34;13.90;99.90
47022;DHT22;32779;52.264;6.154;2023-08-31T06:59:00;13.90;99.90
47022;DHT22;32779;52.264;6.154;2023-08-31T07:01:25;14.00;99.90
47022;DHT22;32779;52.264;6.154;2023-08-31T07:03:52;14.10;99.90
47022;DHT22;32779;52.264;6.154;2023-08-31T07:06:17;14.20;99.90
47022;DHT22;32779;52.264;6.154;2023-08-31T07:08:43;14.20;99.90
47022;DHT22;32779;52.264;6.154;2023-08-31T07:11:10;14.20;99.90
47022;DHT22;32779;52.264;6.154;2023-08-31T07:13:36;14.20;99.90
47022;DHT22;32779;52.264;6.154;2023-08-31T07:16:01;14.20;99.90
47022;DHT22;32779;52.264;6.154;2023-08-31T07:18:27;14.20;99.90
47022;DHT22;32779;52.264;6.154;2023-08-31T07:20:52;14.10;99.90
47022;DHT22;32779;52.264;6.154;2023-08-31T07:23:18;14.20;99.90
47022;DHT22;32779;52.264;6.154;2023-08-31T07:25:43;14.20;99.90
47022;DHT22;32779;52.264;6.154;2023-08-31T07:28:09;14.30;99.90
47022;DHT22;32779;52.264;6.154;2023-08-31T07:30:35;14.50;99.90
47022;DHT22;32779;52.264;6.154;2023-08-31T07:33:02;14.60;99.90
47022;DHT22;32779;52.264;6.154;2023-08-31T07:35:32;14.70;99.90
47022;DHT22;32779;52.264;6.154;2023-08-31T07:37:57;14.70;99.90
47022;DHT22;32779;52.264;6.154;2023-08-31T07:40:23;14.80;99.90
47022;DHT22;32779;52.264;6.154;2023-08-31T07:42:49;14.80;99.90
47022;DHT22;32779;52.264;6.154;2023-08-31T07:45:16;15.00;99.90
47022;DHT22;32779;52.264;6.154;2023-08-31T07:47:42;15.00;99.90
47022;DHT22;32779;52.264;6.154;2023-08-31T07:50:08;15.10;99.90
47022;DHT22;32779;52.264;6.154;2023-08-31T07:52:33;15.20;99.90
47022;DHT22;32779;52.264;6.154;2023-08-31T07:54:59;15.30;99.90
47022;DHT22;32779;52.264;6.154;2023-08-31T07:57:25;15.60;99.90
47022;DHT22;32779;52.264;6.154;2023-08-31T07:59:53;15.70;99.90
47022;DHT22;32779;52.264;6.154;2023-08-31T08:02:18;15.90;99.90
47022;DHT22;32779;52.264;6.154;2023-08-31T08:04:47;16.00;99.90
47022;DHT22;32779;52.264;6.154;2023-08-31T08:07:12;16.30;99.90
47022;DHT22;32779;52.264;6.154;2023-08-31T08:09:38;16.50;99.90
47022;DHT22;32779;52.264;6.154;2023-08-31T08:12:03;16.70;99.90
47022;DHT22;32779;52.264;6.154;2023-08-31T08:14:29;16.70;99.90
47022;DHT22;32779;52.264;6.154;2023-08-31T08:16:55;16.80;99.90
47022;DHT22;32779;52.264;6.154;2023-08-31T08:19:23;16.90;99.90
47022;DHT22;32779;52.264;6.154;2023-08-31T08:21:49;17.00;99.90
47022;DHT22;32779;52.264;6.154;2023-08-31T08:24:15;17.00;99.90
47022;DHT22;32779;52.264;6.154;2023-08-31T08:26:40;17.00;99.90
47022;DHT22;32779;52.264;6.154;2023-08-31T08:29:06;17.10;99.90
47022;DHT22;32779;52.264;6.154;2023-08-31T08:31:31;17.20;99.90
47022;DHT22;32779;52.264;6.154;2023-08-31T08:33:57;17.30;99.90
47022;DHT22;32779;52.264;6.154;2023-08-31T08:36:22;17.30;99.90
47022;DHT22;32779;52.264;6.154;2023-08-31T08:38:48;17.20;99.90
47022;DHT22;32779;52.264;6.154;2023-08-31T08:41:13;17.10;99.90
47022;DHT22;32779;52.264;6.154;2023-08-31T08:43:40;17.10;99.90
47022;DHT22;32779;52.264;6.154;2023-08-31T08:46:08;17.10;99.90
47022;DHT22;32779;52.264;6.154;2023-08-31T08:48:34;17.30;99.90
47022;DHT22;32779;52.264;6.154;2023-08-31T08:51:01;17.20;99.90
47022;DHT22;32779;52.264;6.154;2023-08-31T08:53:27;17.10;99.90
47022;DHT22;32779;52.264;6.154;2023-08-31T08:55:52;17.00;99.90
47022;DHT22;32779;52.264;6.154;2023-08-31T08:58:18;16.90;99.90
47022;DHT22;32779;52.264;6.154;2023-08-31T09:00:44;16.70;99.90
47022;DHT22;32779;52.264;6.154;2023-08-31T09:03:10;16.60;99.90
47022;DHT22;32779;52.264;6.154;2023-08-31T09:05:35;16.40;99.90
47022;DHT22;32779;52.264;6.154;2023-08-31T09:10:34;16.20;99.90
47022;DHT22;32779;52.264;6.154;2023-08-31T09:13:00;16.30;99.90
47022;DHT22;32779;52.264;6.154;2023-08-31T09:15:35;16.20;99.90
47022;DHT22;32779;52.264;6.154;2023-08-31T09:18:02;16.10;99.90
47022;DHT22;32779;52.264;6.154;2023-08-31T09:20:28;16.00;99.90
47022;DHT22;32779;52.264;6.154;2023-08-31T09:22:55;16.00;99.90
47022;DHT22;32779;52.264;6.154;2023-08-31T09:25:21;16.00;99.90
47022;DHT22;32779;52.264;6.154;2023-08-31T09:27:47;16.10;99.90
47022;DHT22;32779;52.264;6.154;2023-08-31T09:30:13;16.10;99.90
47022;DHT22;32779;52.264;6.154;2023-08-31T09:32:39;16.00;99.90
47022;DHT22;32779;52.264;6.154;2023-08-31T09:35:10;16.00;99.90
47022;DHT22;32779;52.264;6.154;2023-08-31T09:37:36;16.00;99.90
47022;DHT22;32779;52.264;6.154;2023-08-31T09:40:02;16.20;99.90
47022;DHT22;32779;52.264;6.154;2023-08-31T09:42:37;16.20;99.90
47022;DHT22;32779;52.264;6.154;2023-08-31T09:45:05;16.10;99.90
47022;DHT22;32779;52.264;6.154;2023-08-31T09:47:31;16.10;99.90
47022;DHT22;32779;52.264;6.154;2023-08-31T09:49:57;16.10;99.90
47022;DHT22;32779;52.264;6.154;2023-08-31T09:52:23;16.10;99.90
47022;DHT22;32779;52.264;6.154;2023-08-31T09:54:49;16.10;99.90
47022;DHT22;32779;52.264;6.154;2023-08-31T09:57:15;16.10;99.90
47022;DHT22;32779;52.264;6.154;2023-08-31T09:59:42;16.10;99.90
47022;DHT22;32779;52.264;6.154;2023-08-31T10:02:11;16.20;99.90
47022;DHT22;32779;52.264;6.154;2023-08-31T10:04:37;16.20;99.90
47022;DHT22;32779;52.264;6.154;2023-08-31T10:07:03;16.30;99.90
47022;DHT22;32779;52.264;6.154;2023-08-31T10:09:31;16.40;99.90
47022;DHT22;32779;52.264;6.154;2023-08-31T10:11:57;16.40;99.90
47022;DHT22;32779;52.264;6.154;2023-08-31T10:14:22;16.50;99.90
47022;DHT22;32779;52.264;6.154;2023-08-31T10:16:48;16.60;99.90
47022;DHT22;32779;52.264;6.154;2023-08-31T10:19:15;16.60;99.90
47022;DHT22;32779;52.264;6.154;2023-08-31T10:21:40;16.60;99.90
47022;DHT22;32779;52.264;6.154;2023-08-31T10:24:06;16.50;99.90
47022;DHT22;32779;52.264;6.154;2023-08-31T10:26:32;16.60;99.90
47022;DHT22;32779;52.264;6.154;2023-08-31T10:28:58;16.50;99.90
47022;DHT22;32779;52.264;6.154;2023-08-31T10:31:28;16.40;99.90
47022;DHT22;32779;52.264;6.154;2023-08-31T10:36:35;16.10;99.90
47022;DHT22;32779;52.264;6.154;2023-08-31T10:39:05;16.00;99.90
47022;DHT22;32779;52.264;6.154;2023-08-31T10:41:32;16.00;99.90
47022;DHT22;32779;52.264;6.154;2023-08-31T10:43:58;15.90;99.90
47022;DHT22;32779;52.264;6.154;2023-08-31T10:48:57;15.90;99.90
47022;DHT22;32779;52.264;6.154;2023-08-31T10:51:32;15.90;99.90
47022;DHT22;32779;52.264;6.154;2023-08-31T10:54:04;15.90;99.90
47022;DHT22;32779;52.264;6.154;2023-08-31T10:56:30;16.00;99.90
47022;DHT22;32779;52.264;6.154;2023-08-31T10:58:59;16.10;99.90
47022;DHT22;32779;52.264;6.154;2023-08-31T11:04:24;16.20;99.90
47022;DHT22;32779;52.264;6.154;2023-08-31T11:07:10;16.30;99.90
47022;DHT22;32779;52.264;6.154;2023-08-31T11:09:35;16.40;99.90
47022;DHT22;32779;52.264;6.154;2023-08-31T11:12:02;16.40;99.90
47022;DHT22;32779;52.264;6.154;2023-08-31T11:14:27;16.40;99.90
47022;DHT22;32779;52.264;6.154;2023-08-31T11:16:53;16.40;99.90
47022;DHT22;32779;52.264;6.154;2023-08-31T11:19:18;16.30;99.90
47022;DHT22;32779;52.264;6.154;2023-08-31T11:21:44;16.30;99.90
47022;DHT22;32779;52.264;6.154;2023-08-31T11:24:09;16.30;99.90
47022;DHT22;32779;52.264;6.154;2023-08-31T11:26:35;16.30;99.90
47022;DHT22;32779;52.264;6.154;2023-08-31T11:29:00;16.30;99.90
47022;DHT22;32779;52.264;6.154;2023-08-31T11:31:26;16.20;99.90
47022;DHT22;32779;52.264;6.154;2023-08-31T11:33:53;16.20;99.90
47022;DHT22;32779;52.264;6.154;2023-08-31T11:36:19;16.10;99.90
47022;DHT22;32779;52.264;6.154;2023-08-31T11:38:44;16.10;99.90
47022;DHT22;32779;52.264;6.154;2023-08-31T11:41:10;16.10;99.90
47022;DHT22;32779;52.264;6.154;2023-08-31T11:43:36;16.20;99.90
47022;DHT22;32779;52.264;6.154;2023-08-31T11:46:02;16.30;99.90
47022;DHT22;32779;52.264;6.154;2023-08-31T11:48:28;16.40;99.90
47022;DHT22;32779;52.264;6.154;2023-08-31T11:50:54;16.50;99.90
47022;DHT22;32779;52.264;6.154;2023-08-31T11:53:20;16.60;99.90
47022;DHT22;32779;52.264;6.154;2023-08-31T11:55:51;16.80;99.90
47022;DHT22;32779;52.264;6.154;2023-08-31T11:58:25;16.90;99.90
47022;DHT22;32779;52.264;6.154;2023-08-31T12:00:54;17.10;99.90
47022;DHT22;32779;52.264;6.154;2023-08-31T12:03:19;17.40;99.90
47022;DHT22;32779;52.264;6.154;2023-08-31T12:05:45;17.50;99.90
47022;DHT22;32779;52.264;6.154;2023-08-31T12:08:11;17.70;99.90
47022;DHT22;32779;52.264;6.154;2023-08-31T12:10:39;17.80;99.90
47022;DHT22;32779;52.264;6.154;2023-08-31T12:13:09;17.90;99.90
47022;DHT22;32779;52.264;6.154;2023-08-31T12:15:35;17.90;99.90
47022;DHT22;32779;52.264;6.154;2023-08-31T12:18:07;18.00;99.90
47022;DHT22;32779;52.264;6.154;2023-08-31T12:20:33;17.90;99.90
47022;DHT22;32779;52.264;6.154;2023-08-31T12:23:04;17.90;99.90
47022;DHT22;32779;52.264;6.154;2023-08-31T12:25:30;17.90;99.90
47022;DHT22;32779;52.264;6.154;2023-08-31T12:27:56;17.90;99.90
47022;DHT22;32779;52.264;6.154;2023-08-31T12:30:21;17.90;99.90
47022;DHT22;32779;52.264;6.154;2023-08-31T12:32:48;17.90;99.90
47022;DHT22;32779;52.264;6.154;2023-08-31T12:35:13;17.90;99.90
47022;DHT22;32779;52.264;6.154;2023-08-31T12:37:39;17.90;99.90
47022;DHT22;32779;52.264;6.154;2023-08-31T12:40:05;18.00;99.90
47022;DHT22;32779;52.264;6.154;2023-08-31T12:42:32;17.90;99.90
47022;DHT22;32779;52.264;6.154;2023-08-31T12:44:57;17.80;99.90
47022;DHT22;32779;52.264;6.154;2023-08-31T12:47:23;17.90;99.90
47022;DHT22;32779;52.264;6.154;2023-08-31T12:49:49;17.90;99.90
47022;DHT22;32779;52.264;6.154;2023-08-31T12:52:15;18.00;99.90
47022;DHT22;32779;52.264;6.154;2023-08-31T12:54:40;18.00;99.90
47022;DHT22;32779;52.264;6.154;2023-08-31T12:57:06;18.10;99.90
47022;DHT22;32779;52.264;6.154;2023-08-31T12:59:31;18.00;99.90
47022;DHT22;32779;52.264;6.154;2023-08-31T13:01:57;18.00;99.90
47022;DHT22;32779;52.264;6.154;2023-08-31T13:04:22;18.00;99.90
47022;DHT22;32779;52.264;6.154;2023-08-31T13:06:48;18.10;99.90
47022;DHT22;32779;52.264;6.154;2023-08-31T13:09:13;18.10;99.90
47022;DHT22;32779;52.264;6.154;2023-08-31T13:11:39;18.10;99.90
47022;DHT22;32779;52.264;6.154;2023-08-31T13:14:04;18.10;99.90
47022;DHT22;32779;52.264;6.154;2023-08-31T13:16:30;18.10;99.90
47022;DHT22;32779;52.264;6.154;2023-08-31T13:18:57;18.20;99.90
47022;DHT22;32779;52.264;6.154;2023-08-31T13:21:23;18.20;99.90
47022;DHT22;32779;52.264;6.154;2023-08-31T13:23:48;18.20;99.90
47022;DHT22;32779;52.264;6.154;2023-08-31T13:26:14;18.20;99.90
47022;DHT22;32779;52.264;6.154;2023-08-31T13:28:39;18.30;99.90
47022;DHT22;32779;52.264;6.154;2023-08-31T13:31:06;18.30;99.90
47022;DHT22;32779;52.264;6.154;2023-08-31T13:33:32;18.30;99.90
47022;DHT22;32779;52.264;6.154;2023-08-31T13:35:57;18.30;99.90
47022;DHT22;32779;52.264;6.154;2023-08-31T13:38:26;18.30;99.90
47022;DHT22;32779;52.264;6.154;2023-08-31T13:40:54;18.40;99.90
47022;DHT22;32779;52.264;6.154;2023-08-31T13:43:21;18.40;99.90
47022;DHT22;32779;52.264;6.154;2023-08-31T13:45:48;18.40;99.90
47022;DHT22;32779;52.264;6.154;2023-08-31T13:48:13;18.40;99.90
47022;DHT22;32779;52.264;6.154;2023-08-31T13:50:39;18.40;99.90
47022;DHT22;32779;52.264;6.154;2023-08-31T13:53:04;18.50;99.90
47022;DHT22;32779;52.264;6.154;2023-08-31T13:55:30;18.60;99.90
47022;DHT22;32779;52.264;6.154;2023-08-31T13:58:02;18.70;99.90
47022;DHT22;32779;52.264;6.154;2023-08-31T14:00:28;18.80;99.90
47022;DHT22;32779;52.264;6.154;2023-08-31T14:02:54;18.90;99.90
47022;DHT22;32779;52.264;6.154;2023-08-31T14:05:19;19.00;99.90
47022;DHT22;32779;52.264;6.154;2023-08-31T14:07:45;19.00;99.90
47022;DHT22;32779;52.264;6.154;2023-08-31T14:10:10;19.10;99.90
47022;DHT22;32779;52.264;6.154;2023-08-31T14:12:36;19.00;99.90
47022;DHT22;32779;52.264;6.154;2023-08-31T14:15:02;19.00;99.90
47022;DHT22;32779;52.264;6.154;2023-08-31T14:17:29;19.00;99.90
47022;DHT22;32779;52.264;6.154;2023-08-31T14:19:55;18.90;99.90
47022;DHT22;32779;52.264;6.154;2023-08-31T14:22:20;18.90;99.90
47022;DHT22;32779;52.264;6.154;2023-08-31T14:24:46;18.80;99.90
47022;DHT22;32779;52.264;6.154;2023-08-31T14:27:11;18.90;99.90
47022;DHT22;32779;52.264;6.154;2023-08-31T14:29:37;18.90;99.90
47022;DHT22;32779;52.264;6.154;2023-08-31T14:32:02;18.90;99.90
47022;DHT22;32779;52.264;6.154;2023-08-31T14:34:28;18.80;99.90
47022;DHT22;32779;52.264;6.154;2023-08-31T14:36:53;18.90;99.90
47022;DHT22;32779;52.264;6.154;2023-08-31T14:39:22;18.80;99.90
47022;DHT22;32779;52.264;6.154;2023-08-31T14:41:50;18.90;99.90
47022;DHT22;32779;52.264;6.154;2023-08-31T14:44:15;18.90;99.90
47022;DHT22;32779;52.264;6.154;2023-08-31T14:46:41;18.90;99.90
47022;DHT22;32779;52.264;6.154;2023-08-31T14:49:06;18.90;99.90
47022;DHT22;32779;52.264;6.154;2023-08-31T14:51:32;18.90;99.90
47022;DHT22;32779;52.264;6.154;2023-08-31T14:53:58;18.80;99.90
47022;DHT22;32779;52.264;6.154;2023-08-31T14:56:23;18.80;99.90
47022;DHT22;32779;52.264;6.154;2023-08-31T14:58:51;18.80;99.90
47022;DHT22;32779;52.264;6.154;2023-08-31T15:01:16;18.80;99.90
47022;DHT22;32779;52.264;6.154;2023-08-31T15:03:42;18.70;99.90
47022;DHT22;32779;52.264;6.154;2023-08-31T15:06:08;18.70;99.90
47022;DHT22;32779;52.264;6.154;2023-08-31T15:08:35;18.60;99.90
47022;DHT22;32779;52.264;6.154;2023-08-31T15:11:01;18.60;99.90
47022;DHT22;32779;52.264;6.154;2023-08-31T15:13:28;18.60;99.80
47022;DHT22;32779;52.264;6.154;2023-08-31T15:15:53;18.60;99.90
47022;DHT22;32779;52.264;6.154;2023-08-31T15:18:19;18.60;99.90
47022;DHT22;32779;52.264;6.154;2023-08-31T15:20:44;18.60;99.90
47022;DHT22;32779;52.264;6.154;2023-08-31T15:23:10;18.60;99.90
47022;DHT22;32779;52.264;6.154;2023-08-31T15:25:35;18.60;99.90
47022;DHT22;32779;52.264;6.154;2023-08-31T15:28:01;18.60;99.90
47022;DHT22;32779;52.264;6.154;2023-08-31T15:30:26;18.60;99.80
47022;DHT22;32779;52.264;6.154;2023-08-31T15:32:52;18.60;99.90
47022;DHT22;32779;52.264;6.154;2023-08-31T15:35:19;18.60;99.80
47022;DHT22;32779;52.264;6.154;2023-08-31T15:37:45;18.60;98.50
47022;DHT22;32779;52.264;6.154;2023-08-31T15:40:13;18.60;99.10